UAE729 OMDB-HUEN
Flight info
| Callsign | UAE729 |
|---|---|
| Flight time | 4h 52m |
| Altitude | 37000 |
| Route | ANVIX R401 GIDIS G783 UKRAG L710 KUKDI B400 RIGAM B404 DEMGO UB404 HARGA UM216 IMVIP IMVIP1A |
| Aircraft | B77W/H-SDE1E2E3FGHIJ2J3J4J5M1RWXY/LB1D1 |
Departure
| Time | 2026-05-08 18:15 |
|---|---|
| Airport | Dubai International Airport (OMDB) |
Arrival
| Time | 2026-05-08 23:07 |
|---|---|
| Airport | Entebbe International Airport (HUEN) |
| Time | Latitude | Longitude | Altitude | Speed | Heading |
|---|---|---|---|---|---|
| 2026-05-08 17:45 | 25.25241 | 55.35641 | 27 ft | 0 kts | 211° |
| 2026-05-08 18:01 | 25.25254 | 55.35649 | 26 ft | 2 kts | 214° |
| 2026-05-08 18:01 | 25.25267 | 55.35660 | 26 ft | 2 kts | 219° |
| 2026-05-08 18:02 | 25.25275 | 55.35668 | 25 ft | 2 kts | 223° |
| 2026-05-08 18:02 | 25.25287 | 55.35682 | 24 ft | 2 kts | 232° |
| 2026-05-08 18:02 | 25.25297 | 55.35697 | 24 ft | 2 kts | 243° |
| 2026-05-08 18:02 | 25.25303 | 55.35714 | 26 ft | 2 kts | 260° |
| 2026-05-08 18:03 | 25.25305 | 55.35732 | 26 ft | 2 kts | 274° |
| 2026-05-08 18:03 | 25.25301 | 55.35750 | 27 ft | 2 kts | 291° |
| 2026-05-08 18:03 | 25.25296 | 55.35763 | 25 ft | 1 kts | 301° |
| 2026-05-08 18:03 | 25.25295 | 55.35765 | 26 ft | 0 kts | 301° |
| 2026-05-08 18:05 | 25.25312 | 55.35735 | 27 ft | 10 kts | 302° |
| 2026-05-08 18:06 | 25.25366 | 55.35639 | 27 ft | 19 kts | 302° |
| 2026-05-08 18:06 | 25.25450 | 55.35489 | 27 ft | 24 kts | 302° |
| 2026-05-08 18:06 | 25.25530 | 55.35347 | 27 ft | 21 kts | 302° |
| 2026-05-08 18:06 | 25.25601 | 55.35221 | 27 ft | 14 kts | 302° |
| 2026-05-08 18:07 | 25.25645 | 55.35159 | 27 ft | 10 kts | 331° |
| 2026-05-08 18:07 | 25.25711 | 55.35171 | 27 ft | 10 kts | 27° |
| 2026-05-08 18:07 | 25.25772 | 55.35210 | 27 ft | 10 kts | 31° |
| 2026-05-08 18:07 | 25.25831 | 55.35249 | 27 ft | 10 kts | 31° |
| 2026-05-08 18:08 | 25.25894 | 55.35292 | 26 ft | 11 kts | 31° |
| 2026-05-08 18:08 | 25.25958 | 55.35337 | 27 ft | 11 kts | 40° |
| 2026-05-08 18:08 | 25.26000 | 55.35408 | 27 ft | 11 kts | 69° |
| 2026-05-08 18:08 | 25.26008 | 55.35491 | 27 ft | 11 kts | 97° |
| 2026-05-08 18:09 | 25.25980 | 55.35570 | 27 ft | 12 kts | 120° |
| 2026-05-08 18:09 | 25.25920 | 55.35679 | 27 ft | 22 kts | 121° |
| 2026-05-08 18:09 | 25.25825 | 55.35847 | 27 ft | 25 kts | 122° |
| 2026-05-08 18:09 | 25.25733 | 55.36010 | 27 ft | 25 kts | 122° |
| 2026-05-08 18:10 | 25.25643 | 55.36171 | 27 ft | 25 kts | 122° |
| 2026-05-08 18:10 | 25.25558 | 55.36322 | 27 ft | 23 kts | 122° |
| 2026-05-08 18:10 | 25.25470 | 55.36479 | 27 ft | 23 kts | 122° |
| 2026-05-08 18:10 | 25.25386 | 55.36628 | 27 ft | 23 kts | 122° |
| 2026-05-08 18:11 | 25.25300 | 55.36783 | 27 ft | 24 kts | 121° |
| 2026-05-08 18:11 | 25.25215 | 55.36935 | 27 ft | 23 kts | 121° |
| 2026-05-08 18:11 | 25.25129 | 55.37087 | 27 ft | 22 kts | 122° |
| 2026-05-08 18:11 | 25.25045 | 55.37234 | 27 ft | 23 kts | 122° |
| 2026-05-08 18:12 | 25.24963 | 55.37382 | 27 ft | 22 kts | 122° |
| 2026-05-08 18:12 | 25.24878 | 55.37533 | 27 ft | 24 kts | 122° |
| 2026-05-08 18:12 | 25.24796 | 55.37680 | 27 ft | 20 kts | 122° |
| 2026-05-08 18:12 | 25.24720 | 55.37814 | 27 ft | 20 kts | 122° |
| 2026-05-08 18:13 | 25.24671 | 55.37921 | 27 ft | 12 kts | 88° |
| 2026-05-08 18:13 | 25.24726 | 55.37991 | 27 ft | 13 kts | 33° |
| 2026-05-08 18:13 | 25.24790 | 55.38029 | 27 ft | 7 kts | 5° |
| 2026-05-08 18:13 | 25.24826 | 55.37991 | 27 ft | 8 kts | 302° |
| 2026-05-08 18:14 | 25.24831 | 55.37983 | 27 ft | 0 kts | 302° |
| 2026-05-08 18:14 | 25.24851 | 55.37948 | 27 ft | 23 kts | 302° |
| 2026-05-08 18:14 | 25.25070 | 55.37552 | 27 ft | 98 kts | 301° |
| 2026-05-08 18:14 | 25.25551 | 55.36685 | 27 ft | 163 kts | 301° |
| 2026-05-08 18:15 | 25.26232 | 55.35456 | 50 ft | 207 kts | 301° |
| 2026-05-08 18:15 | 25.26989 | 55.34105 | 655 ft | 205 kts | 301° |
| 2026-05-08 18:15 | 25.27704 | 55.32834 | 1594 ft | 184 kts | 300° |
| 2026-05-08 18:15 | 25.28323 | 55.31642 | 2247 ft | 181 kts | 297° |
| 2026-05-08 18:16 | 25.28968 | 55.30398 | 2594 ft | 186 kts | 301° |
| 2026-05-08 18:16 | 25.29491 | 55.29083 | 2889 ft | 195 kts | 274° |
| 2026-05-08 18:16 | 25.29172 | 55.27654 | 3283 ft | 195 kts | 242° |
| 2026-05-08 18:16 | 25.28449 | 55.26415 | 3748 ft | 194 kts | 240° |
| 2026-05-08 18:17 | 25.27776 | 55.25100 | 4098 ft | 198 kts | 243° |
| 2026-05-08 18:17 | 25.27145 | 55.23743 | 4487 ft | 205 kts | 245° |
| 2026-05-08 18:17 | 25.26516 | 55.22293 | 4906 ft | 207 kts | 245° |
| 2026-05-08 18:17 | 25.25889 | 55.20832 | 5253 ft | 217 kts | 245° |
| 2026-05-08 18:18 | 25.25216 | 55.19253 | 5465 ft | 235 kts | 245° |
| 2026-05-08 18:18 | 25.24391 | 55.17685 | 5829 ft | 241 kts | 226° |
| 2026-05-08 18:18 | 25.22923 | 55.16756 | 6191 ft | 252 kts | 190° |
| 2026-05-08 18:18 | 25.21157 | 55.16736 | 6555 ft | 258 kts | 177° |
| 2026-05-08 18:19 | 25.19382 | 55.17061 | 6956 ft | 264 kts | 157° |
| 2026-05-08 18:19 | 25.17909 | 55.18301 | 7267 ft | 279 kts | 125° |
| 2026-05-08 18:19 | 25.16955 | 55.20193 | 7590 ft | 288 kts | 117° |
| 2026-05-08 18:19 | 25.16023 | 55.22196 | 8103 ft | 295 kts | 118° |
| 2026-05-08 18:20 | 25.15067 | 55.24218 | 8743 ft | 298 kts | 119° |
| 2026-05-08 18:20 | 25.14098 | 55.26250 | 9417 ft | 300 kts | 119° |
| 2026-05-08 18:20 | 25.13120 | 55.28295 | 10029 ft | 302 kts | 119° |
| 2026-05-08 18:20 | 25.12130 | 55.30357 | 10671 ft | 304 kts | 120° |
| 2026-05-08 18:21 | 25.11142 | 55.32410 | 11394 ft | 304 kts | 120° |
| 2026-05-08 18:21 | 25.10185 | 55.34504 | 12174 ft | 306 kts | 116° |
| 2026-05-08 18:21 | 25.09311 | 55.36645 | 12960 ft | 307 kts | 115° |
| 2026-05-08 18:21 | 25.08445 | 55.38787 | 13728 ft | 309 kts | 115° |
| 2026-05-08 18:22 | 25.07557 | 55.40962 | 14421 ft | 313 kts | 115° |
| 2026-05-08 18:22 | 25.06670 | 55.43184 | 14976 ft | 324 kts | 114° |
| 2026-05-08 18:22 | 25.05758 | 55.45559 | 15133 ft | 348 kts | 114° |
| 2026-05-08 18:22 | 25.04791 | 55.48100 | 15293 ft | 371 kts | 113° |
| 2026-05-08 18:23 | 25.03758 | 55.50797 | 15459 ft | 392 kts | 113° |
| 2026-05-08 18:23 | 25.02675 | 55.53611 | 15829 ft | 405 kts | 114° |
| 2026-05-08 18:23 | 25.01525 | 55.56469 | 16304 ft | 413 kts | 117° |
| 2026-05-08 18:23 | 25.00103 | 55.59234 | 16901 ft | 418 kts | 122° |
| 2026-05-08 18:24 | 24.98540 | 55.61955 | 17579 ft | 421 kts | 123° |
| 2026-05-08 18:24 | 24.96980 | 55.64691 | 18208 ft | 425 kts | 122° |
| 2026-05-08 18:24 | 24.95437 | 55.67495 | 18742 ft | 428 kts | 121° |
| 2026-05-08 18:24 | 24.93902 | 55.70312 | 19292 ft | 432 kts | 123° |
| 2026-05-08 18:25 | 24.92326 | 55.72875 | 19791 ft | 434 kts | 127° |
| 2026-05-08 18:25 | 24.90439 | 55.75661 | 20351 ft | 438 kts | 128° |
| 2026-05-08 18:25 | 24.88588 | 55.78343 | 20883 ft | 441 kts | 128° |
| 2026-05-08 18:25 | 24.86765 | 55.81032 | 21401 ft | 445 kts | 128° |
| 2026-05-08 18:26 | 24.84929 | 55.83787 | 21920 ft | 449 kts | 128° |
| 2026-05-08 18:26 | 24.83079 | 55.86573 | 22421 ft | 452 kts | 128° |
| 2026-05-08 18:26 | 24.81195 | 55.89353 | 22907 ft | 452 kts | 130° |
| 2026-05-08 18:26 | 24.78919 | 55.91706 | 23147 ft | 455 kts | 149° |
| 2026-05-08 18:27 | 24.76050 | 55.93171 | 23580 ft | 455 kts | 164° |
| 2026-05-08 18:27 | 24.73962 | 55.93700 | 23873 ft | 454 kts | 174° |
| 2026-05-08 18:27 | 24.69785 | 55.93709 | 24461 ft | 454 kts | 184° |
| 2026-05-08 18:27 | 24.66625 | 55.93519 | 24873 ft | 457 kts | 184° |
| 2026-05-08 18:28 | 24.63440 | 55.93267 | 25205 ft | 459 kts | 190° |
| 2026-05-08 18:28 | 24.60359 | 55.92340 | 25517 ft | 461 kts | 202° |
| 2026-05-08 18:28 | 24.57478 | 55.90789 | 25933 ft | 462 kts | 212° |
| 2026-05-08 18:28 | 24.54918 | 55.88664 | 26354 ft | 462 kts | 222° |
| 2026-05-08 18:29 | 24.52526 | 55.86293 | 26778 ft | 464 kts | 223° |
| 2026-05-08 18:29 | 24.50137 | 55.83909 | 27183 ft | 466 kts | 222° |
| 2026-05-08 18:29 | 24.47720 | 55.81523 | 27557 ft | 469 kts | 222° |
| 2026-05-08 18:29 | 24.45267 | 55.79139 | 27926 ft | 471 kts | 222° |
| 2026-05-08 18:30 | 24.42797 | 55.76764 | 28293 ft | 473 kts | 221° |
| 2026-05-08 18:30 | 24.40313 | 55.74386 | 28651 ft | 475 kts | 221° |
| 2026-05-08 18:30 | 24.37822 | 55.72003 | 28996 ft | 477 kts | 222° |
| 2026-05-08 18:30 | 24.35320 | 55.69599 | 29322 ft | 478 kts | 222° |
| 2026-05-08 18:31 | 24.32824 | 55.67187 | 29718 ft | 478 kts | 222° |
| 2026-05-08 18:31 | 24.30336 | 55.64787 | 30153 ft | 476 kts | 221° |
| 2026-05-08 18:31 | 24.27688 | 55.62611 | 30566 ft | 476 kts | 213° |
| 2026-05-08 18:31 | 24.24809 | 55.60839 | 30981 ft | 475 kts | 207° |
| 2026-05-08 18:32 | 24.21785 | 55.59369 | 31378 ft | 475 kts | 202° |
| 2026-05-08 18:32 | 24.18631 | 55.58292 | 31740 ft | 476 kts | 197° |
| 2026-05-08 18:32 | 24.15423 | 55.57380 | 32118 ft | 475 kts | 196° |
| 2026-05-08 18:32 | 24.12286 | 55.56502 | 32489 ft | 474 kts | 196° |
| 2026-05-08 18:33 | 24.09036 | 55.55574 | 32878 ft | 473 kts | 197° |
| 2026-05-08 18:33 | 24.05867 | 55.54647 | 33249 ft | 471 kts | 197° |
| 2026-05-08 18:33 | 24.02704 | 55.53710 | 33606 ft | 470 kts | 197° |
| 2026-05-08 18:33 | 23.99548 | 55.52772 | 33952 ft | 469 kts | 197° |
| 2026-05-08 18:34 | 23.96402 | 55.51835 | 34260 ft | 468 kts | 197° |
| 2026-05-08 18:34 | 23.93261 | 55.50899 | 34553 ft | 467 kts | 197° |
| 2026-05-08 18:34 | 23.90131 | 55.49967 | 34777 ft | 468 kts | 197° |
| 2026-05-08 18:34 | 23.86977 | 55.49028 | 34811 ft | 471 kts | 197° |
| 2026-05-08 18:35 | 23.80658 | 55.47149 | 34847 ft | 468 kts | 197° |
| 2026-05-08 18:35 | 23.74413 | 55.45288 | 34854 ft | 464 kts | 197° |
| 2026-05-08 18:36 | 23.68236 | 55.43447 | 34854 ft | 463 kts | 197° |
| 2026-05-08 18:36 | 23.61995 | 55.41589 | 34851 ft | 463 kts | 197° |
| 2026-05-08 18:37 | 23.55795 | 55.39790 | 34848 ft | 465 kts | 193° |
| 2026-05-08 18:37 | 23.49263 | 55.39438 | 34856 ft | 471 kts | 178° |
| 2026-05-08 18:38 | 23.42851 | 55.40875 | 34855 ft | 477 kts | 167° |
| 2026-05-08 18:38 | 23.36469 | 55.42917 | 34851 ft | 479 kts | 166° |
| 2026-05-08 18:39 | 23.30033 | 55.45007 | 34846 ft | 480 kts | 166° |
| 2026-05-08 18:39 | 23.23676 | 55.47031 | 34844 ft | 480 kts | 166° |
| 2026-05-08 18:40 | 23.17258 | 55.49056 | 34842 ft | 480 kts | 167° |
| 2026-05-08 18:40 | 23.10859 | 55.51074 | 34848 ft | 479 kts | 166° |
| 2026-05-08 18:41 | 23.04411 | 55.53107 | 34844 ft | 479 kts | 166° |
| 2026-05-08 18:41 | 22.98049 | 55.55074 | 34845 ft | 478 kts | 167° |
| 2026-05-08 18:42 | 22.91652 | 55.57018 | 34844 ft | 478 kts | 167° |
| 2026-05-08 18:42 | 22.85313 | 55.58947 | 34842 ft | 479 kts | 167° |
| 2026-05-08 18:43 | 22.78816 | 55.60928 | 34842 ft | 479 kts | 167° |
| 2026-05-08 18:43 | 22.72398 | 55.62885 | 34839 ft | 479 kts | 167° |
| 2026-05-08 18:44 | 22.65974 | 55.64842 | 34839 ft | 480 kts | 167° |
| 2026-05-08 18:44 | 22.59541 | 55.66802 | 34835 ft | 480 kts | 167° |
| 2026-05-08 18:45 | 22.53108 | 55.68774 | 34836 ft | 481 kts | 166° |
| 2026-05-08 18:45 | 22.46671 | 55.70749 | 34834 ft | 481 kts | 166° |
| 2026-05-08 18:46 | 22.41326 | 55.72385 | 34829 ft | 481 kts | 166° |
| 2026-05-08 18:46 | 22.34887 | 55.74354 | 34832 ft | 481 kts | 166° |
| 2026-05-08 18:47 | 22.28447 | 55.76320 | 34831 ft | 481 kts | 167° |
| 2026-05-08 18:47 | 22.21893 | 55.77607 | 34829 ft | 477 kts | 176° |
| 2026-05-08 18:48 | 22.15284 | 55.78219 | 34832 ft | 477 kts | 177° |
| 2026-05-08 18:48 | 22.08668 | 55.78841 | 34832 ft | 478 kts | 177° |
| 2026-05-08 18:49 | 22.02035 | 55.79499 | 34829 ft | 478 kts | 176° |
| 2026-05-08 18:49 | 21.95405 | 55.80168 | 34827 ft | 479 kts | 176° |
| 2026-05-08 18:50 | 21.88765 | 55.80837 | 34830 ft | 480 kts | 176° |
| 2026-05-08 18:50 | 21.82109 | 55.81506 | 34826 ft | 481 kts | 176° |
| 2026-05-08 18:51 | 21.75441 | 55.82174 | 34829 ft | 482 kts | 176° |
| 2026-05-08 18:51 | 21.68777 | 55.82841 | 34833 ft | 482 kts | 176° |
| 2026-05-08 18:52 | 21.62071 | 55.83499 | 34833 ft | 483 kts | 176° |
| 2026-05-08 18:52 | 21.55374 | 55.84151 | 34834 ft | 484 kts | 176° |
| 2026-05-08 18:53 | 21.48669 | 55.84805 | 34831 ft | 484 kts | 176° |
| 2026-05-08 18:53 | 21.41965 | 55.85460 | 34828 ft | 484 kts | 176° |
| 2026-05-08 18:54 | 21.35267 | 55.86113 | 34829 ft | 484 kts | 176° |
| 2026-05-08 18:54 | 21.28564 | 55.86767 | 34835 ft | 484 kts | 176° |
| 2026-05-08 18:55 | 21.18561 | 55.87733 | 34830 ft | 484 kts | 176° |
| 2026-05-08 18:56 | 21.11854 | 55.88376 | 34829 ft | 484 kts | 176° |
| 2026-05-08 18:56 | 21.05146 | 55.89020 | 34838 ft | 484 kts | 176° |
| 2026-05-08 18:57 | 20.98429 | 55.89665 | 34836 ft | 484 kts | 176° |
| 2026-05-08 18:57 | 20.91715 | 55.90309 | 34832 ft | 485 kts | 176° |
| 2026-05-08 18:58 | 20.84999 | 55.90954 | 34835 ft | 485 kts | 176° |
| 2026-05-08 18:58 | 20.78274 | 55.91613 | 34837 ft | 485 kts | 176° |
| 2026-05-08 18:59 | 20.71539 | 55.92278 | 34836 ft | 486 kts | 176° |
| 2026-05-08 18:59 | 20.64806 | 55.92940 | 34833 ft | 486 kts | 176° |
| 2026-05-08 19:00 | 20.58075 | 55.93600 | 34834 ft | 486 kts | 176° |
| 2026-05-08 19:00 | 20.51334 | 55.94260 | 34832 ft | 486 kts | 176° |
| 2026-05-08 19:01 | 20.44600 | 55.94919 | 34834 ft | 486 kts | 176° |
| 2026-05-08 19:01 | 20.37860 | 55.95578 | 34837 ft | 486 kts | 176° |
| 2026-05-08 19:02 | 20.31129 | 55.96236 | 34837 ft | 486 kts | 176° |
| 2026-05-08 19:02 | 20.24389 | 55.96881 | 34840 ft | 486 kts | 176° |
| 2026-05-08 19:03 | 20.17642 | 55.97520 | 34845 ft | 486 kts | 176° |
| 2026-05-08 19:03 | 20.10899 | 55.98162 | 34854 ft | 486 kts | 176° |
| 2026-05-08 19:04 | 20.04150 | 55.98571 | 34860 ft | 485 kts | 180° |
| 2026-05-08 19:04 | 19.97401 | 55.98705 | 34845 ft | 485 kts | 180° |
| 2026-05-08 19:05 | 19.90645 | 55.98835 | 34859 ft | 486 kts | 180° |
| 2026-05-08 19:05 | 19.83877 | 55.98991 | 34851 ft | 486 kts | 180° |
| 2026-05-08 19:06 | 19.77174 | 55.99156 | 34853 ft | 486 kts | 180° |
| 2026-05-08 19:06 | 19.70413 | 55.99321 | 34859 ft | 486 kts | 180° |
| 2026-05-08 19:07 | 19.63634 | 55.99485 | 34870 ft | 487 kts | 180° |
| 2026-05-08 19:07 | 19.56870 | 55.99649 | 34873 ft | 487 kts | 180° |
| 2026-05-08 19:08 | 19.50201 | 55.98827 | 34880 ft | 483 kts | 197° |
| 2026-05-08 19:08 | 19.44073 | 55.96018 | 34891 ft | 480 kts | 211° |
| 2026-05-08 19:09 | 19.38300 | 55.92416 | 34879 ft | 481 kts | 211° |
| 2026-05-08 19:09 | 19.32514 | 55.88827 | 34881 ft | 482 kts | 211° |
| 2026-05-08 19:10 | 19.26698 | 55.85286 | 34869 ft | 483 kts | 211° |
| 2026-05-08 19:10 | 19.20870 | 55.81760 | 34877 ft | 483 kts | 211° |
| 2026-05-08 19:11 | 19.15056 | 55.78242 | 34895 ft | 483 kts | 211° |
| 2026-05-08 19:11 | 19.09211 | 55.74706 | 34898 ft | 483 kts | 211° |
| 2026-05-08 19:12 | 19.03388 | 55.71188 | 34885 ft | 483 kts | 211° |
| 2026-05-08 19:12 | 18.97536 | 55.67668 | 34885 ft | 483 kts | 211° |
| 2026-05-08 19:13 | 18.91698 | 55.64160 | 34904 ft | 483 kts | 211° |
| 2026-05-08 19:13 | 18.85866 | 55.60657 | 34902 ft | 482 kts | 211° |
| 2026-05-08 19:14 | 18.80028 | 55.57152 | 34899 ft | 483 kts | 211° |
| 2026-05-08 19:14 | 18.74235 | 55.53675 | 34902 ft | 482 kts | 210° |
| 2026-05-08 19:15 | 18.68397 | 55.50176 | 34900 ft | 483 kts | 210° |
| 2026-05-08 19:15 | 18.62558 | 55.46678 | 34903 ft | 483 kts | 210° |
| 2026-05-08 19:16 | 18.56720 | 55.43183 | 34906 ft | 483 kts | 210° |
| 2026-05-08 19:16 | 18.50876 | 55.39688 | 34900 ft | 483 kts | 210° |
| 2026-05-08 19:17 | 18.45027 | 55.36192 | 34903 ft | 483 kts | 210° |
| 2026-05-08 19:17 | 18.39186 | 55.32703 | 34900 ft | 483 kts | 210° |
| 2026-05-08 19:18 | 18.33333 | 55.29211 | 34904 ft | 483 kts | 210° |
| 2026-05-08 19:18 | 18.27481 | 55.25719 | 34903 ft | 484 kts | 210° |
| 2026-05-08 19:19 | 18.21625 | 55.22226 | 34905 ft | 484 kts | 210° |
| 2026-05-08 19:19 | 18.15773 | 55.18739 | 34905 ft | 483 kts | 210° |
| 2026-05-08 19:20 | 18.10752 | 55.16155 | 34909 ft | 484 kts | 204° |
| 2026-05-08 19:20 | 18.03505 | 55.12950 | 34903 ft | 484 kts | 203° |
| 2026-05-08 19:21 | 17.97292 | 55.10205 | 34904 ft | 484 kts | 204° |
| 2026-05-08 19:21 | 17.91102 | 55.07439 | 34912 ft | 484 kts | 204° |
| 2026-05-08 19:22 | 17.84955 | 55.04682 | 34910 ft | 484 kts | 204° |
| 2026-05-08 19:22 | 17.78718 | 55.01886 | 34916 ft | 484 kts | 204° |
| 2026-05-08 19:23 | 17.72527 | 54.99115 | 34915 ft | 484 kts | 204° |
| 2026-05-08 19:23 | 17.66377 | 54.96364 | 34918 ft | 484 kts | 204° |
| 2026-05-08 19:24 | 17.60186 | 54.93598 | 34921 ft | 484 kts | 204° |
| 2026-05-08 19:24 | 17.53953 | 54.90814 | 34923 ft | 484 kts | 204° |
| 2026-05-08 19:25 | 17.47807 | 54.88072 | 34930 ft | 484 kts | 204° |
| 2026-05-08 19:25 | 17.41616 | 54.85312 | 34935 ft | 484 kts | 203° |
| 2026-05-08 19:26 | 17.35426 | 54.82552 | 34935 ft | 483 kts | 203° |
| 2026-05-08 19:26 | 17.29242 | 54.79798 | 34946 ft | 483 kts | 204° |
| 2026-05-08 19:27 | 17.23338 | 54.76470 | 34939 ft | 482 kts | 213° |
| 2026-05-08 19:27 | 17.17707 | 54.72637 | 34931 ft | 482 kts | 213° |
| 2026-05-08 19:28 | 17.12087 | 54.68825 | 34934 ft | 482 kts | 213° |
| 2026-05-08 19:28 | 17.06426 | 54.65032 | 34924 ft | 482 kts | 213° |
| 2026-05-08 19:29 | 17.00780 | 54.61264 | 34920 ft | 482 kts | 213° |
| 2026-05-08 19:29 | 16.95123 | 54.57488 | 34919 ft | 482 kts | 213° |
| 2026-05-08 19:30 | 16.89472 | 54.53717 | 34908 ft | 482 kts | 212° |
| 2026-05-08 19:30 | 16.83822 | 54.49948 | 34903 ft | 482 kts | 212° |
| 2026-05-08 19:31 | 16.78163 | 54.46174 | 34897 ft | 483 kts | 212° |
| 2026-05-08 19:31 | 16.72506 | 54.42403 | 34877 ft | 483 kts | 212° |
| 2026-05-08 19:32 | 16.66846 | 54.38631 | 34895 ft | 483 kts | 212° |
| 2026-05-08 19:32 | 16.61183 | 54.34860 | 34895 ft | 483 kts | 212° |
| 2026-05-08 19:33 | 16.56475 | 54.31728 | 34895 ft | 483 kts | 212° |
| 2026-05-08 19:33 | 16.49884 | 54.27345 | 34901 ft | 483 kts | 212° |
| 2026-05-08 19:34 | 16.44246 | 54.23600 | 34898 ft | 483 kts | 212° |
| 2026-05-08 19:34 | 16.39492 | 54.20443 | 34907 ft | 483 kts | 212° |
| 2026-05-08 19:35 | 16.33826 | 54.16683 | 34908 ft | 483 kts | 212° |
| 2026-05-08 19:35 | 16.28165 | 54.12930 | 34891 ft | 483 kts | 212° |
| 2026-05-08 19:36 | 16.22497 | 54.09174 | 34910 ft | 483 kts | 212° |
| 2026-05-08 19:36 | 16.16834 | 54.05424 | 34915 ft | 483 kts | 212° |
| 2026-05-08 19:37 | 16.11170 | 54.01676 | 34916 ft | 483 kts | 212° |
| 2026-05-08 19:37 | 16.05539 | 53.97952 | 34907 ft | 483 kts | 212° |
| 2026-05-08 19:38 | 15.99825 | 53.94176 | 35127 ft | 485 kts | 212° |
| 2026-05-08 19:38 | 15.97014 | 53.92318 | 35457 ft | 483 kts | 212° |
| 2026-05-08 19:38 | 15.94183 | 53.90449 | 35820 ft | 480 kts | 212° |
| 2026-05-08 19:38 | 15.91368 | 53.88590 | 35925 ft | 482 kts | 212° |
| 2026-05-08 19:39 | 15.88538 | 53.86723 | 35926 ft | 481 kts | 212° |
| 2026-05-08 19:39 | 15.82923 | 53.82990 | 35908 ft | 477 kts | 212° |
| 2026-05-08 19:40 | 15.77356 | 53.79260 | 35917 ft | 475 kts | 212° |
| 2026-05-08 19:40 | 15.71804 | 53.75545 | 35920 ft | 475 kts | 212° |
| 2026-05-08 19:41 | 15.66253 | 53.71837 | 35922 ft | 475 kts | 212° |
| 2026-05-08 19:41 | 15.60681 | 53.68120 | 35920 ft | 476 kts | 212° |
| 2026-05-08 19:42 | 15.55104 | 53.64400 | 35919 ft | 477 kts | 212° |
| 2026-05-08 19:42 | 15.49518 | 53.60677 | 35920 ft | 478 kts | 212° |
| 2026-05-08 19:43 | 15.43913 | 53.56943 | 35919 ft | 479 kts | 212° |
| 2026-05-08 19:43 | 15.38271 | 53.53271 | 35915 ft | 479 kts | 211° |
| 2026-05-08 19:44 | 15.32592 | 53.49657 | 35920 ft | 479 kts | 211° |
| 2026-05-08 19:44 | 15.26919 | 53.46041 | 35918 ft | 479 kts | 211° |
| 2026-05-08 19:45 | 15.21244 | 53.42413 | 35917 ft | 479 kts | 211° |
| 2026-05-08 19:45 | 15.15587 | 53.38793 | 35921 ft | 478 kts | 211° |
| 2026-05-08 19:46 | 15.09928 | 53.35174 | 35922 ft | 478 kts | 211° |
| 2026-05-08 19:46 | 15.01485 | 53.29781 | 35918 ft | 477 kts | 211° |
| 2026-05-08 19:47 | 14.95835 | 53.26174 | 35917 ft | 477 kts | 211° |
| 2026-05-08 19:47 | 14.90146 | 53.22545 | 35921 ft | 477 kts | 211° |
| 2026-05-08 19:48 | 14.84532 | 53.18966 | 35919 ft | 477 kts | 211° |
| 2026-05-08 19:48 | 14.78884 | 53.15367 | 35921 ft | 477 kts | 211° |
| 2026-05-08 19:49 | 14.73235 | 53.11769 | 35918 ft | 477 kts | 211° |
| 2026-05-08 19:49 | 14.67756 | 53.07909 | 35921 ft | 478 kts | 221° |
| 2026-05-08 19:50 | 14.63340 | 53.02774 | 35920 ft | 480 kts | 235° |
| 2026-05-08 19:50 | 14.59932 | 52.96844 | 35921 ft | 481 kts | 239° |
| 2026-05-08 19:51 | 14.56609 | 52.90832 | 35918 ft | 482 kts | 239° |
| 2026-05-08 19:51 | 14.53256 | 52.84846 | 35918 ft | 482 kts | 238° |
| 2026-05-08 19:52 | 14.49867 | 52.78871 | 35920 ft | 482 kts | 238° |
| 2026-05-08 19:52 | 14.46470 | 52.72908 | 35918 ft | 482 kts | 238° |
| 2026-05-08 19:53 | 14.43073 | 52.66949 | 35918 ft | 482 kts | 238° |
| 2026-05-08 19:53 | 14.39677 | 52.60994 | 35921 ft | 482 kts | 238° |
| 2026-05-08 19:54 | 14.36283 | 52.55043 | 35906 ft | 481 kts | 238° |
| 2026-05-08 19:54 | 14.32881 | 52.49083 | 35920 ft | 481 kts | 238° |
| 2026-05-08 19:55 | 14.29510 | 52.43182 | 35923 ft | 481 kts | 238° |
| 2026-05-08 19:55 | 14.26112 | 52.37238 | 35921 ft | 481 kts | 238° |
| 2026-05-08 19:56 | 14.22717 | 52.31304 | 35906 ft | 481 kts | 238° |
| 2026-05-08 19:56 | 14.19297 | 52.25330 | 35916 ft | 481 kts | 238° |
| 2026-05-08 19:57 | 14.15922 | 52.19440 | 35919 ft | 481 kts | 238° |
| 2026-05-08 19:57 | 14.12519 | 52.13504 | 35903 ft | 481 kts | 238° |
| 2026-05-08 19:58 | 14.09119 | 52.07578 | 35919 ft | 481 kts | 238° |
| 2026-05-08 19:58 | 14.05716 | 52.01651 | 35920 ft | 481 kts | 238° |
| 2026-05-08 19:59 | 14.02309 | 51.95722 | 35917 ft | 481 kts | 238° |
| 2026-05-08 19:59 | 13.98903 | 51.89799 | 35902 ft | 481 kts | 238° |
| 2026-05-08 20:00 | 13.95499 | 51.83882 | 35920 ft | 481 kts | 238° |
| 2026-05-08 20:00 | 13.92088 | 51.77959 | 35920 ft | 480 kts | 238° |
| 2026-05-08 20:01 | 13.88683 | 51.72048 | 35917 ft | 480 kts | 238° |
| 2026-05-08 20:01 | 13.85277 | 51.66141 | 35905 ft | 480 kts | 238° |
| 2026-05-08 20:02 | 13.81866 | 51.60230 | 35907 ft | 480 kts | 238° |
| 2026-05-08 20:02 | 13.78462 | 51.54332 | 35907 ft | 479 kts | 238° |
| 2026-05-08 20:03 | 13.75056 | 51.48438 | 35915 ft | 479 kts | 238° |
| 2026-05-08 20:03 | 13.71688 | 51.42531 | 35917 ft | 479 kts | 238° |
| 2026-05-08 20:04 | 13.68368 | 51.36593 | 35922 ft | 479 kts | 238° |
| 2026-05-08 20:04 | 13.65070 | 51.30695 | 35899 ft | 478 kts | 238° |
| 2026-05-08 20:05 | 13.61746 | 51.24775 | 35900 ft | 478 kts | 238° |
| 2026-05-08 20:05 | 13.58422 | 51.18866 | 35902 ft | 478 kts | 238° |
| 2026-05-08 20:06 | 13.55092 | 51.12951 | 35908 ft | 477 kts | 238° |
| 2026-05-08 20:06 | 13.51769 | 51.07053 | 35898 ft | 477 kts | 238° |
| 2026-05-08 20:07 | 13.48444 | 51.01153 | 35913 ft | 477 kts | 238° |
| 2026-05-08 20:07 | 13.45118 | 50.95255 | 35894 ft | 477 kts | 238° |
| 2026-05-08 20:08 | 13.41789 | 50.89359 | 35897 ft | 477 kts | 238° |
| 2026-05-08 20:08 | 13.38463 | 50.83469 | 35908 ft | 477 kts | 238° |
| 2026-05-08 20:09 | 13.35133 | 50.77577 | 35898 ft | 477 kts | 238° |
| 2026-05-08 20:09 | 13.31803 | 50.71690 | 35900 ft | 477 kts | 238° |
| 2026-05-08 20:10 | 13.28474 | 50.65808 | 35896 ft | 477 kts | 238° |
| 2026-05-08 20:10 | 13.25139 | 50.59919 | 35895 ft | 477 kts | 238° |
| 2026-05-08 20:11 | 13.21810 | 50.54042 | 35889 ft | 477 kts | 238° |
| 2026-05-08 20:11 | 13.18474 | 50.48166 | 35891 ft | 476 kts | 238° |
| 2026-05-08 20:12 | 13.15125 | 50.42299 | 35890 ft | 476 kts | 238° |
| 2026-05-08 20:12 | 13.11773 | 50.36433 | 35889 ft | 476 kts | 238° |
| 2026-05-08 20:13 | 13.08425 | 50.30572 | 35886 ft | 476 kts | 238° |
| 2026-05-08 20:13 | 13.05079 | 50.24716 | 35880 ft | 476 kts | 238° |
| 2026-05-08 20:14 | 13.01728 | 50.18853 | 35882 ft | 476 kts | 238° |
| 2026-05-08 20:14 | 12.98380 | 50.13002 | 35887 ft | 476 kts | 238° |
| 2026-05-08 20:15 | 12.95028 | 50.07147 | 35880 ft | 476 kts | 238° |
| 2026-05-08 20:15 | 12.91680 | 50.01303 | 35879 ft | 476 kts | 238° |
| 2026-05-08 20:16 | 12.88324 | 49.95447 | 35879 ft | 476 kts | 238° |
| 2026-05-08 20:16 | 12.84967 | 49.89595 | 35878 ft | 476 kts | 238° |
| 2026-05-08 20:17 | 12.81634 | 49.83788 | 35878 ft | 477 kts | 238° |
| 2026-05-08 20:17 | 12.78244 | 49.77887 | 35874 ft | 477 kts | 238° |
| 2026-05-08 20:18 | 12.74901 | 49.72070 | 35878 ft | 477 kts | 238° |
| 2026-05-08 20:18 | 12.71535 | 49.66217 | 35875 ft | 477 kts | 238° |
| 2026-05-08 20:19 | 12.68163 | 49.60358 | 35879 ft | 477 kts | 238° |
| 2026-05-08 20:19 | 12.64794 | 49.54508 | 35878 ft | 477 kts | 238° |
| 2026-05-08 20:20 | 12.61421 | 49.48653 | 35878 ft | 477 kts | 238° |
| 2026-05-08 20:20 | 12.58596 | 49.43754 | 35878 ft | 477 kts | 238° |
| 2026-05-08 20:21 | 12.55220 | 49.37902 | 35878 ft | 477 kts | 238° |
| 2026-05-08 20:21 | 12.51862 | 49.32085 | 35881 ft | 478 kts | 238° |
| 2026-05-08 20:22 | 12.48491 | 49.26249 | 35874 ft | 478 kts | 238° |
| 2026-05-08 20:22 | 12.45100 | 49.20382 | 35877 ft | 478 kts | 238° |
| 2026-05-08 20:23 | 12.41714 | 49.14528 | 35875 ft | 478 kts | 238° |
| 2026-05-08 20:23 | 12.38328 | 49.08676 | 35877 ft | 478 kts | 238° |
| 2026-05-08 20:24 | 12.34937 | 49.02820 | 35873 ft | 478 kts | 238° |
| 2026-05-08 20:24 | 12.31543 | 48.96964 | 35874 ft | 479 kts | 238° |
| 2026-05-08 20:25 | 12.28145 | 48.91102 | 35875 ft | 479 kts | 238° |
| 2026-05-08 20:25 | 12.24752 | 48.85253 | 35872 ft | 479 kts | 238° |
| 2026-05-08 20:26 | 12.21357 | 48.79406 | 35871 ft | 479 kts | 238° |
| 2026-05-08 20:26 | 12.17954 | 48.73547 | 35868 ft | 478 kts | 238° |
| 2026-05-08 20:27 | 12.14561 | 48.67708 | 35869 ft | 478 kts | 238° |
| 2026-05-08 20:27 | 12.11159 | 48.61857 | 35867 ft | 478 kts | 238° |
| 2026-05-08 20:28 | 12.07758 | 48.56011 | 35867 ft | 478 kts | 238° |
| 2026-05-08 20:28 | 12.04360 | 48.50172 | 35871 ft | 478 kts | 238° |
| 2026-05-08 20:29 | 12.01015 | 48.44297 | 35868 ft | 479 kts | 239° |
| 2026-05-08 20:29 | 11.97690 | 48.38399 | 35865 ft | 479 kts | 239° |
| 2026-05-08 20:30 | 11.94364 | 48.32513 | 35865 ft | 479 kts | 239° |
| 2026-05-08 20:30 | 11.91033 | 48.26636 | 35867 ft | 479 kts | 239° |
| 2026-05-08 20:31 | 11.87697 | 48.20758 | 35866 ft | 478 kts | 239° |
| 2026-05-08 20:31 | 11.84356 | 48.14876 | 35864 ft | 478 kts | 239° |
| 2026-05-08 20:32 | 11.81019 | 48.09003 | 35867 ft | 478 kts | 239° |
| 2026-05-08 20:32 | 11.77683 | 48.03136 | 35867 ft | 478 kts | 239° |
| 2026-05-08 20:33 | 11.74341 | 47.97261 | 35864 ft | 478 kts | 239° |
| 2026-05-08 20:33 | 11.70999 | 47.91389 | 35862 ft | 478 kts | 239° |
| 2026-05-08 20:34 | 11.67656 | 47.85520 | 35859 ft | 478 kts | 239° |
| 2026-05-08 20:35 | 11.62642 | 47.76723 | 35860 ft | 478 kts | 239° |
| 2026-05-08 20:35 | 11.59296 | 47.70857 | 35858 ft | 478 kts | 239° |
| 2026-05-08 20:36 | 11.55951 | 47.64996 | 35856 ft | 478 kts | 239° |
| 2026-05-08 20:36 | 11.52605 | 47.59137 | 35859 ft | 478 kts | 239° |
| 2026-05-08 20:37 | 11.49256 | 47.53276 | 35855 ft | 478 kts | 239° |
| 2026-05-08 20:37 | 11.45909 | 47.47420 | 35859 ft | 478 kts | 239° |
| 2026-05-08 20:38 | 11.42563 | 47.41571 | 35858 ft | 478 kts | 239° |
| 2026-05-08 20:38 | 11.39212 | 47.35714 | 35858 ft | 478 kts | 239° |
| 2026-05-08 20:39 | 11.35860 | 47.29862 | 35856 ft | 478 kts | 238° |
| 2026-05-08 20:39 | 11.32538 | 47.24059 | 35858 ft | 478 kts | 239° |
| 2026-05-08 20:40 | 11.29191 | 47.18214 | 35859 ft | 477 kts | 239° |
| 2026-05-08 20:40 | 11.25845 | 47.12373 | 35858 ft | 477 kts | 239° |
| 2026-05-08 20:41 | 11.22493 | 47.06524 | 35857 ft | 478 kts | 239° |
| 2026-05-08 20:41 | 11.19143 | 47.00681 | 35859 ft | 478 kts | 239° |
| 2026-05-08 20:42 | 11.15786 | 46.94829 | 35859 ft | 479 kts | 239° |
| 2026-05-08 20:42 | 11.12427 | 46.88979 | 35861 ft | 479 kts | 239° |
| 2026-05-08 20:43 | 11.09057 | 46.83113 | 35861 ft | 480 kts | 239° |
| 2026-05-08 20:43 | 11.05683 | 46.77242 | 35860 ft | 480 kts | 239° |
| 2026-05-08 20:44 | 11.02309 | 46.71374 | 35862 ft | 481 kts | 239° |
| 2026-05-08 20:44 | 10.98934 | 46.65507 | 35857 ft | 481 kts | 239° |
| 2026-05-08 20:45 | 10.95558 | 46.59644 | 35857 ft | 480 kts | 239° |
| 2026-05-08 20:45 | 10.92175 | 46.53771 | 35860 ft | 480 kts | 239° |
| 2026-05-08 20:46 | 10.88798 | 46.47910 | 35859 ft | 480 kts | 239° |
| 2026-05-08 20:46 | 10.85416 | 46.42045 | 35866 ft | 480 kts | 239° |
| 2026-05-08 20:47 | 10.82058 | 46.36221 | 35867 ft | 480 kts | 239° |
| 2026-05-08 20:47 | 10.78683 | 46.30356 | 35871 ft | 481 kts | 239° |
| 2026-05-08 20:48 | 10.75347 | 46.24467 | 35877 ft | 481 kts | 239° |
| 2026-05-08 20:48 | 10.72021 | 46.18573 | 35880 ft | 481 kts | 239° |
| 2026-05-08 20:49 | 10.68684 | 46.12675 | 35881 ft | 481 kts | 239° |
| 2026-05-08 20:49 | 10.65340 | 46.06774 | 35885 ft | 481 kts | 239° |
| 2026-05-08 20:50 | 10.62003 | 46.00893 | 35890 ft | 481 kts | 239° |
| 2026-05-08 20:50 | 10.58660 | 45.95003 | 35891 ft | 481 kts | 239° |
| 2026-05-08 20:51 | 10.55309 | 45.89102 | 35890 ft | 481 kts | 239° |
| 2026-05-08 20:51 | 10.51959 | 45.83206 | 35891 ft | 481 kts | 239° |
| 2026-05-08 20:52 | 10.48615 | 45.77325 | 35888 ft | 481 kts | 239° |
| 2026-05-08 20:52 | 10.45265 | 45.71435 | 35887 ft | 481 kts | 239° |
| 2026-05-08 20:53 | 10.41914 | 45.65547 | 35888 ft | 481 kts | 239° |
| 2026-05-08 20:53 | 10.38564 | 45.59663 | 35888 ft | 481 kts | 239° |
| 2026-05-08 20:54 | 10.35213 | 45.53780 | 35888 ft | 481 kts | 239° |
| 2026-05-08 20:54 | 10.31864 | 45.47906 | 35893 ft | 481 kts | 239° |
| 2026-05-08 20:55 | 10.28511 | 45.42027 | 35899 ft | 481 kts | 239° |
| 2026-05-08 20:55 | 10.25158 | 45.36150 | 35907 ft | 481 kts | 239° |
| 2026-05-08 20:56 | 10.21820 | 45.30303 | 35917 ft | 481 kts | 239° |
| 2026-05-08 20:56 | 10.18465 | 45.24431 | 35919 ft | 481 kts | 239° |
| 2026-05-08 20:57 | 10.15102 | 45.18547 | 35925 ft | 482 kts | 239° |
| 2026-05-08 20:57 | 10.11741 | 45.12668 | 35931 ft | 482 kts | 239° |
| 2026-05-08 20:58 | 10.08373 | 45.06781 | 35939 ft | 482 kts | 238° |
| 2026-05-08 20:58 | 10.05011 | 45.00908 | 35944 ft | 482 kts | 238° |
| 2026-05-08 20:59 | 10.01639 | 44.95021 | 35944 ft | 482 kts | 238° |
| 2026-05-08 20:59 | 9.98272 | 44.89144 | 35949 ft | 482 kts | 238° |
| 2026-05-08 21:00 | 9.94899 | 44.83260 | 35954 ft | 482 kts | 238° |
| 2026-05-08 21:00 | 9.91525 | 44.77379 | 35952 ft | 482 kts | 238° |
| 2026-05-08 21:01 | 9.88147 | 44.71492 | 35954 ft | 483 kts | 238° |
| 2026-05-08 21:01 | 9.84772 | 44.65613 | 35956 ft | 482 kts | 238° |
| 2026-05-08 21:02 | 9.81393 | 44.59731 | 35956 ft | 483 kts | 238° |
| 2026-05-08 21:02 | 9.78016 | 44.53855 | 35958 ft | 483 kts | 238° |
| 2026-05-08 21:03 | 9.74633 | 44.47972 | 35960 ft | 483 kts | 238° |
| 2026-05-08 21:03 | 9.71254 | 44.42099 | 35962 ft | 482 kts | 238° |
| 2026-05-08 21:04 | 9.67873 | 44.36225 | 35971 ft | 482 kts | 238° |
| 2026-05-08 21:04 | 9.64493 | 44.30355 | 35971 ft | 483 kts | 238° |
| 2026-05-08 21:05 | 9.61128 | 44.24514 | 35973 ft | 483 kts | 238° |
| 2026-05-08 21:05 | 9.57745 | 44.18644 | 35977 ft | 483 kts | 238° |
| 2026-05-08 21:06 | 9.54353 | 44.12761 | 35982 ft | 483 kts | 238° |
| 2026-05-08 21:06 | 9.50709 | 44.07064 | 35982 ft | 481 kts | 230° |
| 2026-05-08 21:07 | 9.46482 | 44.01813 | 35999 ft | 481 kts | 229° |
| 2026-05-08 21:07 | 9.42954 | 43.97472 | 35997 ft | 481 kts | 229° |
| 2026-05-08 21:08 | 9.38726 | 43.92209 | 36001 ft | 481 kts | 230° |
| 2026-05-08 21:08 | 9.34515 | 43.86935 | 36003 ft | 481 kts | 230° |
| 2026-05-08 21:09 | 9.30309 | 43.81667 | 36008 ft | 481 kts | 230° |
| 2026-05-08 21:09 | 9.26098 | 43.76400 | 36011 ft | 481 kts | 230° |
| 2026-05-08 21:10 | 9.21869 | 43.71149 | 36013 ft | 481 kts | 229° |
| 2026-05-08 21:10 | 9.17629 | 43.65933 | 36016 ft | 481 kts | 229° |
| 2026-05-08 21:11 | 9.13376 | 43.60703 | 36019 ft | 481 kts | 229° |
| 2026-05-08 21:11 | 9.09132 | 43.55477 | 36020 ft | 481 kts | 229° |
| 2026-05-08 21:12 | 9.04904 | 43.50270 | 36019 ft | 481 kts | 229° |
| 2026-05-08 21:12 | 9.00637 | 43.45016 | 36018 ft | 481 kts | 229° |
| 2026-05-08 21:13 | 8.96420 | 43.39826 | 36019 ft | 481 kts | 229° |
| 2026-05-08 21:13 | 8.92170 | 43.34598 | 36019 ft | 481 kts | 229° |
| 2026-05-08 21:14 | 8.87922 | 43.29374 | 36017 ft | 481 kts | 229° |
| 2026-05-08 21:14 | 8.83665 | 43.24142 | 36017 ft | 481 kts | 229° |
| 2026-05-08 21:15 | 8.79407 | 43.18910 | 36011 ft | 481 kts | 229° |
| 2026-05-08 21:15 | 8.75157 | 43.13690 | 36009 ft | 481 kts | 229° |
| 2026-05-08 21:16 | 8.70900 | 43.08464 | 36013 ft | 481 kts | 229° |
| 2026-05-08 21:16 | 8.66651 | 43.03249 | 36001 ft | 482 kts | 229° |
| 2026-05-08 21:17 | 8.62380 | 42.98010 | 36000 ft | 482 kts | 229° |
| 2026-05-08 21:17 | 8.58110 | 42.92774 | 36000 ft | 482 kts | 229° |
| 2026-05-08 21:18 | 8.53845 | 42.87546 | 36001 ft | 482 kts | 229° |
| 2026-05-08 21:18 | 8.49578 | 42.82317 | 35996 ft | 482 kts | 230° |
| 2026-05-08 21:19 | 8.45314 | 42.77095 | 35998 ft | 483 kts | 230° |
| 2026-05-08 21:19 | 8.41036 | 42.71856 | 35996 ft | 483 kts | 230° |
| 2026-05-08 21:20 | 8.36764 | 42.66628 | 35996 ft | 483 kts | 230° |
| 2026-05-08 21:20 | 8.32494 | 42.61403 | 35989 ft | 483 kts | 230° |
| 2026-05-08 21:21 | 8.28221 | 42.56175 | 35988 ft | 483 kts | 230° |
| 2026-05-08 21:21 | 8.23943 | 42.50945 | 35981 ft | 483 kts | 230° |
| 2026-05-08 21:22 | 8.19670 | 42.45724 | 35980 ft | 483 kts | 230° |
| 2026-05-08 21:22 | 8.15388 | 42.40497 | 35975 ft | 483 kts | 230° |
| 2026-05-08 21:23 | 8.11112 | 42.35277 | 35974 ft | 483 kts | 230° |
| 2026-05-08 21:23 | 8.06830 | 42.30050 | 35969 ft | 483 kts | 230° |
| 2026-05-08 21:24 | 8.02546 | 42.24823 | 35969 ft | 483 kts | 230° |
| 2026-05-08 21:24 | 7.98261 | 42.19596 | 35964 ft | 484 kts | 230° |
| 2026-05-08 21:25 | 7.93968 | 42.14361 | 35964 ft | 484 kts | 230° |
| 2026-05-08 21:25 | 7.89676 | 42.09130 | 35967 ft | 484 kts | 230° |
| 2026-05-08 21:26 | 7.85385 | 42.03901 | 35962 ft | 484 kts | 230° |
| 2026-05-08 21:26 | 7.81123 | 41.98710 | 35961 ft | 484 kts | 230° |
| 2026-05-08 21:27 | 7.76834 | 41.93486 | 35959 ft | 483 kts | 230° |
| 2026-05-08 21:27 | 7.72547 | 41.88267 | 35965 ft | 483 kts | 230° |
| 2026-05-08 21:28 | 7.68258 | 41.83050 | 35964 ft | 483 kts | 230° |
| 2026-05-08 21:28 | 7.63967 | 41.77855 | 35966 ft | 482 kts | 230° |
| 2026-05-08 21:29 | 7.59669 | 41.72655 | 35965 ft | 482 kts | 230° |
| 2026-05-08 21:29 | 7.55379 | 41.67463 | 35969 ft | 482 kts | 230° |
| 2026-05-08 21:30 | 7.51088 | 41.62269 | 35970 ft | 482 kts | 230° |
| 2026-05-08 21:30 | 7.46793 | 41.57073 | 35970 ft | 482 kts | 230° |
| 2026-05-08 21:31 | 7.42503 | 41.51883 | 35972 ft | 482 kts | 230° |
| 2026-05-08 21:31 | 7.38215 | 41.46697 | 35975 ft | 482 kts | 230° |
| 2026-05-08 21:32 | 7.33919 | 41.41505 | 35977 ft | 482 kts | 230° |
| 2026-05-08 21:32 | 7.29626 | 41.36316 | 35982 ft | 482 kts | 230° |
| 2026-05-08 21:33 | 7.25333 | 41.31129 | 35981 ft | 482 kts | 230° |
| 2026-05-08 21:33 | 7.21075 | 41.25918 | 35988 ft | 482 kts | 230° |
| 2026-05-08 21:34 | 7.16865 | 41.20658 | 35992 ft | 482 kts | 231° |
| 2026-05-08 21:34 | 7.12660 | 41.15399 | 35997 ft | 482 kts | 231° |
| 2026-05-08 21:35 | 7.08447 | 41.10148 | 36003 ft | 482 kts | 230° |
| 2026-05-08 21:35 | 7.04230 | 41.04903 | 36008 ft | 482 kts | 230° |
| 2026-05-08 21:36 | 7.00011 | 40.99658 | 36013 ft | 482 kts | 230° |
| 2026-05-08 21:36 | 6.95797 | 40.94420 | 36018 ft | 482 kts | 230° |
| 2026-05-08 21:37 | 6.91575 | 40.89173 | 36018 ft | 482 kts | 230° |
| 2026-05-08 21:37 | 6.87384 | 40.83966 | 36027 ft | 482 kts | 230° |
| 2026-05-08 21:38 | 6.83164 | 40.78726 | 36028 ft | 482 kts | 230° |
| 2026-05-08 21:38 | 6.78952 | 40.73497 | 36025 ft | 481 kts | 230° |
| 2026-05-08 21:39 | 6.74735 | 40.68263 | 36029 ft | 481 kts | 230° |
| 2026-05-08 21:39 | 6.70523 | 40.63036 | 36026 ft | 480 kts | 230° |
| 2026-05-08 21:40 | 6.66318 | 40.57820 | 36019 ft | 480 kts | 230° |
| 2026-05-08 21:40 | 6.62117 | 40.52611 | 36026 ft | 479 kts | 230° |
| 2026-05-08 21:41 | 6.55819 | 40.44804 | 36024 ft | 479 kts | 230° |
| 2026-05-08 21:41 | 6.51622 | 40.39604 | 36011 ft | 479 kts | 230° |
| 2026-05-08 21:42 | 6.47427 | 40.34406 | 36015 ft | 478 kts | 230° |
| 2026-05-08 21:42 | 6.43238 | 40.29219 | 36013 ft | 478 kts | 230° |
| 2026-05-08 21:43 | 6.39048 | 40.24032 | 36013 ft | 478 kts | 230° |
| 2026-05-08 21:43 | 6.34891 | 40.18885 | 36014 ft | 477 kts | 230° |
| 2026-05-08 21:44 | 6.30706 | 40.13706 | 36014 ft | 477 kts | 230° |
| 2026-05-08 21:44 | 6.26520 | 40.08527 | 36011 ft | 478 kts | 230° |
| 2026-05-08 21:45 | 6.22305 | 40.03351 | 36019 ft | 478 kts | 228° |
| 2026-05-08 21:45 | 6.17821 | 39.98427 | 36024 ft | 477 kts | 226° |
| 2026-05-08 21:46 | 6.13276 | 39.93563 | 36027 ft | 478 kts | 226° |
| 2026-05-08 21:46 | 6.08743 | 39.88681 | 36026 ft | 478 kts | 226° |
| 2026-05-08 21:47 | 6.04214 | 39.83775 | 36033 ft | 479 kts | 226° |
| 2026-05-08 21:47 | 5.99690 | 39.78872 | 36033 ft | 479 kts | 226° |
| 2026-05-08 21:48 | 5.95159 | 39.73962 | 36037 ft | 479 kts | 226° |
| 2026-05-08 21:48 | 5.90634 | 39.69064 | 36043 ft | 479 kts | 226° |
| 2026-05-08 21:49 | 5.86250 | 39.64021 | 36046 ft | 479 kts | 230° |
| 2026-05-08 21:49 | 5.82018 | 39.58851 | 36047 ft | 479 kts | 230° |
| 2026-05-08 21:50 | 5.77760 | 39.53699 | 36051 ft | 479 kts | 229° |
| 2026-05-08 21:50 | 5.73477 | 39.48574 | 36050 ft | 479 kts | 229° |
| 2026-05-08 21:51 | 5.69185 | 39.43447 | 36053 ft | 479 kts | 229° |
| 2026-05-08 21:51 | 5.64907 | 39.38333 | 36056 ft | 479 kts | 229° |
| 2026-05-08 21:52 | 5.60621 | 39.33215 | 36058 ft | 479 kts | 229° |
| 2026-05-08 21:52 | 5.56332 | 39.28096 | 36054 ft | 479 kts | 229° |
| 2026-05-08 21:53 | 5.52772 | 39.23845 | 36053 ft | 479 kts | 229° |
| 2026-05-08 21:53 | 5.48488 | 39.18732 | 36054 ft | 478 kts | 230° |
| 2026-05-08 21:54 | 5.43483 | 39.12758 | 36052 ft | 478 kts | 230° |
| 2026-05-08 21:54 | 5.39917 | 39.08503 | 36051 ft | 478 kts | 230° |
| 2026-05-08 21:55 | 5.34942 | 39.02568 | 36042 ft | 479 kts | 230° |
| 2026-05-08 21:56 | 5.29210 | 38.95732 | 36037 ft | 478 kts | 230° |
| 2026-05-08 21:56 | 5.24923 | 38.90620 | 36042 ft | 478 kts | 230° |
| 2026-05-08 21:57 | 5.20637 | 38.85511 | 36037 ft | 479 kts | 230° |
| 2026-05-08 21:57 | 5.16351 | 38.80404 | 36039 ft | 479 kts | 230° |
| 2026-05-08 21:58 | 5.12067 | 38.75300 | 36040 ft | 479 kts | 230° |
| 2026-05-08 21:58 | 5.07775 | 38.70188 | 36045 ft | 479 kts | 230° |
| 2026-05-08 21:59 | 5.03483 | 38.65077 | 36044 ft | 479 kts | 230° |
| 2026-05-08 21:59 | 4.99197 | 38.59973 | 36045 ft | 479 kts | 230° |
| 2026-05-08 22:00 | 4.94932 | 38.54896 | 36048 ft | 478 kts | 230° |
| 2026-05-08 22:00 | 4.90652 | 38.49803 | 36048 ft | 478 kts | 230° |
| 2026-05-08 22:01 | 4.86371 | 38.44709 | 36047 ft | 478 kts | 230° |
| 2026-05-08 22:01 | 4.82087 | 38.39613 | 36046 ft | 478 kts | 230° |
| 2026-05-08 22:02 | 4.77805 | 38.34520 | 36047 ft | 477 kts | 230° |
| 2026-05-08 22:02 | 4.73525 | 38.29431 | 36045 ft | 477 kts | 230° |
| 2026-05-08 22:03 | 4.69243 | 38.24340 | 36046 ft | 478 kts | 230° |
| 2026-05-08 22:03 | 4.64959 | 38.19249 | 36037 ft | 478 kts | 230° |
| 2026-05-08 22:04 | 4.60669 | 38.14151 | 36036 ft | 478 kts | 230° |
| 2026-05-08 22:04 | 4.56385 | 38.09061 | 36027 ft | 478 kts | 230° |
| 2026-05-08 22:05 | 4.52103 | 38.03974 | 36022 ft | 478 kts | 230° |
| 2026-05-08 22:05 | 4.47812 | 37.98878 | 36016 ft | 478 kts | 230° |
| 2026-05-08 22:06 | 4.43514 | 37.93775 | 36012 ft | 478 kts | 230° |
| 2026-05-08 22:06 | 4.39234 | 37.88693 | 36008 ft | 478 kts | 230° |
| 2026-05-08 22:07 | 4.34934 | 37.83590 | 36000 ft | 478 kts | 230° |
| 2026-05-08 22:07 | 4.30643 | 37.78498 | 35987 ft | 478 kts | 230° |
| 2026-05-08 22:08 | 4.26345 | 37.73399 | 35984 ft | 479 kts | 230° |
| 2026-05-08 22:08 | 4.22051 | 37.68304 | 35974 ft | 479 kts | 230° |
| 2026-05-08 22:09 | 4.17747 | 37.63199 | 35968 ft | 479 kts | 230° |
| 2026-05-08 22:09 | 4.13451 | 37.58104 | 35965 ft | 479 kts | 230° |
| 2026-05-08 22:10 | 4.09174 | 37.53033 | 35952 ft | 479 kts | 230° |
| 2026-05-08 22:10 | 4.04844 | 37.47899 | 35951 ft | 479 kts | 230° |
| 2026-05-08 22:11 | 4.00653 | 37.42776 | 35937 ft | 478 kts | 234° |
| 2026-05-08 22:11 | 3.97280 | 37.37096 | 35935 ft | 477 kts | 244° |
| 2026-05-08 22:12 | 3.94369 | 37.31089 | 35931 ft | 477 kts | 244° |
| 2026-05-08 22:12 | 3.91465 | 37.25075 | 35928 ft | 477 kts | 244° |
| 2026-05-08 22:13 | 3.88553 | 37.19112 | 35928 ft | 477 kts | 244° |
| 2026-05-08 22:13 | 3.85619 | 37.13140 | 35921 ft | 478 kts | 244° |
| 2026-05-08 22:14 | 3.82683 | 37.07173 | 35920 ft | 478 kts | 244° |
| 2026-05-08 22:14 | 3.79745 | 37.01200 | 35916 ft | 479 kts | 244° |
| 2026-05-08 22:15 | 3.76803 | 36.95218 | 35914 ft | 479 kts | 244° |
| 2026-05-08 22:15 | 3.73924 | 36.89365 | 35912 ft | 479 kts | 244° |
| 2026-05-08 22:16 | 3.70972 | 36.83365 | 35911 ft | 478 kts | 244° |
| 2026-05-08 22:16 | 3.68002 | 36.77327 | 35910 ft | 477 kts | 244° |
| 2026-05-08 22:17 | 3.65071 | 36.71372 | 35908 ft | 477 kts | 244° |
| 2026-05-08 22:17 | 3.62145 | 36.65428 | 35904 ft | 476 kts | 244° |
| 2026-05-08 22:18 | 3.59218 | 36.59483 | 35898 ft | 475 kts | 244° |
| 2026-05-08 22:18 | 3.56298 | 36.53555 | 35900 ft | 475 kts | 244° |
| 2026-05-08 22:19 | 3.53377 | 36.47625 | 35889 ft | 474 kts | 244° |
| 2026-05-08 22:19 | 3.50458 | 36.41701 | 35885 ft | 475 kts | 244° |
| 2026-05-08 22:20 | 3.47540 | 36.35778 | 35884 ft | 475 kts | 243° |
| 2026-05-08 22:20 | 3.44618 | 36.29848 | 35877 ft | 474 kts | 243° |
| 2026-05-08 22:21 | 3.41704 | 36.23936 | 35875 ft | 473 kts | 243° |
| 2026-05-08 22:21 | 3.38792 | 36.18030 | 35865 ft | 473 kts | 243° |
| 2026-05-08 22:22 | 3.35881 | 36.12127 | 35868 ft | 472 kts | 243° |
| 2026-05-08 22:22 | 3.32980 | 36.06244 | 35865 ft | 471 kts | 243° |
| 2026-05-08 22:23 | 3.30078 | 36.00361 | 35870 ft | 472 kts | 243° |
| 2026-05-08 22:23 | 3.27168 | 35.94462 | 35869 ft | 473 kts | 243° |
| 2026-05-08 22:24 | 3.24251 | 35.88551 | 35872 ft | 474 kts | 243° |
| 2026-05-08 22:24 | 3.21326 | 35.82625 | 35877 ft | 475 kts | 244° |
| 2026-05-08 22:25 | 3.18399 | 35.76695 | 35881 ft | 476 kts | 244° |
| 2026-05-08 22:25 | 3.15464 | 35.70747 | 35885 ft | 477 kts | 243° |
| 2026-05-08 22:26 | 3.12477 | 35.64809 | 35885 ft | 478 kts | 240° |
| 2026-05-08 22:26 | 3.08654 | 35.59373 | 35890 ft | 478 kts | 230° |
| 2026-05-08 22:27 | 3.04052 | 35.54635 | 35890 ft | 478 kts | 224° |
| 2026-05-08 22:27 | 2.99230 | 35.50052 | 35886 ft | 478 kts | 224° |
| 2026-05-08 22:28 | 2.94422 | 35.45459 | 35890 ft | 478 kts | 224° |
| 2026-05-08 22:28 | 2.89626 | 35.40834 | 35894 ft | 478 kts | 224° |
| 2026-05-08 22:29 | 2.84848 | 35.36211 | 35897 ft | 478 kts | 224° |
| 2026-05-08 22:29 | 2.80080 | 35.31598 | 35903 ft | 477 kts | 224° |
| 2026-05-08 22:30 | 2.75310 | 35.26986 | 35913 ft | 477 kts | 224° |
| 2026-05-08 22:30 | 2.70542 | 35.22378 | 35917 ft | 476 kts | 224° |
| 2026-05-08 22:31 | 2.65773 | 35.17768 | 35924 ft | 476 kts | 224° |
| 2026-05-08 22:31 | 2.61011 | 35.13167 | 35931 ft | 476 kts | 224° |
| 2026-05-08 22:32 | 2.56243 | 35.08558 | 35942 ft | 476 kts | 224° |
| 2026-05-08 22:32 | 2.51474 | 35.03950 | 35949 ft | 477 kts | 224° |
| 2026-05-08 22:33 | 2.46714 | 34.99351 | 35965 ft | 477 kts | 224° |
| 2026-05-08 22:33 | 2.42157 | 34.94528 | 35975 ft | 476 kts | 230° |
| 2026-05-08 22:34 | 2.37870 | 34.89492 | 35979 ft | 477 kts | 230° |
| 2026-05-08 22:34 | 2.33576 | 34.84431 | 35977 ft | 477 kts | 230° |
| 2026-05-08 22:35 | 2.29267 | 34.79389 | 35979 ft | 478 kts | 230° |
| 2026-05-08 22:35 | 2.24936 | 34.74339 | 35981 ft | 478 kts | 230° |
| 2026-05-08 22:36 | 2.20601 | 34.69289 | 35980 ft | 479 kts | 230° |
| 2026-05-08 22:36 | 2.16266 | 34.64235 | 35980 ft | 479 kts | 230° |
| 2026-05-08 22:37 | 2.11924 | 34.59175 | 35978 ft | 479 kts | 230° |
| 2026-05-08 22:37 | 2.07583 | 34.54115 | 35975 ft | 480 kts | 230° |
| 2026-05-08 22:38 | 2.03968 | 34.49902 | 35972 ft | 480 kts | 230° |
| 2026-05-08 22:38 | 1.99620 | 34.44835 | 35970 ft | 480 kts | 230° |
| 2026-05-08 22:39 | 1.94566 | 34.38945 | 35963 ft | 481 kts | 230° |
| 2026-05-08 22:39 | 1.90212 | 34.33871 | 35962 ft | 481 kts | 230° |
| 2026-05-08 22:40 | 1.86590 | 34.29651 | 35958 ft | 481 kts | 230° |
| 2026-05-08 22:40 | 1.82187 | 34.24556 | 35956 ft | 481 kts | 228° |
| 2026-05-08 22:41 | 1.77573 | 34.19767 | 35961 ft | 482 kts | 226° |
| 2026-05-08 22:41 | 1.72832 | 34.14980 | 35956 ft | 482 kts | 226° |
| 2026-05-08 22:42 | 1.68157 | 34.10240 | 35956 ft | 482 kts | 226° |
| 2026-05-08 22:42 | 1.63455 | 34.05442 | 35955 ft | 483 kts | 226° |
| 2026-05-08 22:43 | 1.58769 | 34.00651 | 35955 ft | 483 kts | 226° |
| 2026-05-08 22:43 | 1.54087 | 33.95863 | 35954 ft | 484 kts | 226° |
| 2026-05-08 22:44 | 1.49341 | 33.91012 | 35954 ft | 485 kts | 226° |
| 2026-05-08 22:44 | 1.44627 | 33.86195 | 35949 ft | 485 kts | 226° |
| 2026-05-08 22:45 | 1.39905 | 33.81370 | 35949 ft | 486 kts | 226° |
| 2026-05-08 22:45 | 1.35177 | 33.76539 | 35944 ft | 486 kts | 226° |
| 2026-05-08 22:45 | 1.32821 | 33.74132 | 35835 ft | 488 kts | 226° |
| 2026-05-08 22:46 | 1.30422 | 33.71680 | 35113 ft | 497 kts | 226° |
| 2026-05-08 22:46 | 1.28016 | 33.69222 | 34651 ft | 491 kts | 225° |
| 2026-05-08 22:46 | 1.25634 | 33.66789 | 34122 ft | 487 kts | 225° |
| 2026-05-08 22:46 | 1.23274 | 33.64378 | 33536 ft | 484 kts | 225° |
| 2026-05-08 22:47 | 1.20935 | 33.61988 | 32981 ft | 480 kts | 225° |
| 2026-05-08 22:47 | 1.18603 | 33.59607 | 32448 ft | 476 kts | 225° |
| 2026-05-08 22:47 | 1.16301 | 33.57255 | 31927 ft | 472 kts | 225° |
| 2026-05-08 22:47 | 1.14014 | 33.54919 | 31415 ft | 469 kts | 225° |
| 2026-05-08 22:48 | 1.11793 | 33.52650 | 30911 ft | 465 kts | 225° |
| 2026-05-08 22:48 | 1.09485 | 33.50293 | 30368 ft | 463 kts | 225° |
| 2026-05-08 22:48 | 1.07242 | 33.48002 | 29842 ft | 460 kts | 225° |
| 2026-05-08 22:48 | 1.05017 | 33.45729 | 29267 ft | 457 kts | 225° |
| 2026-05-08 22:49 | 1.02791 | 33.43456 | 28735 ft | 454 kts | 225° |
| 2026-05-08 22:49 | 0.98439 | 33.39010 | 27694 ft | 447 kts | 225° |
| 2026-05-08 22:49 | 0.96238 | 33.36762 | 27173 ft | 444 kts | 225° |
| 2026-05-08 22:50 | 0.94091 | 33.34570 | 26682 ft | 441 kts | 225° |
| 2026-05-08 22:50 | 0.91977 | 33.32410 | 26190 ft | 438 kts | 225° |
| 2026-05-08 22:50 | 0.89855 | 33.30243 | 25695 ft | 436 kts | 225° |
| 2026-05-08 22:50 | 0.87734 | 33.28076 | 25192 ft | 434 kts | 225° |
| 2026-05-08 22:51 | 0.85629 | 33.25926 | 24689 ft | 433 kts | 225° |
| 2026-05-08 22:51 | 0.83526 | 33.23778 | 24198 ft | 431 kts | 226° |
| 2026-05-08 22:51 | 0.81561 | 33.21545 | 23685 ft | 427 kts | 236° |
| 2026-05-08 22:51 | 0.80319 | 33.18880 | 23157 ft | 422 kts | 254° |
| 2026-05-08 22:52 | 0.79567 | 33.16059 | 22650 ft | 418 kts | 255° |
| 2026-05-08 22:52 | 0.78818 | 33.13261 | 22153 ft | 416 kts | 255° |
| 2026-05-08 22:52 | 0.78049 | 33.10486 | 21671 ft | 413 kts | 254° |
| 2026-05-08 22:52 | 0.77267 | 33.07732 | 21191 ft | 411 kts | 254° |
| 2026-05-08 22:53 | 0.76478 | 33.04993 | 20736 ft | 409 kts | 254° |
| 2026-05-08 22:53 | 0.75694 | 33.02275 | 20254 ft | 407 kts | 254° |
| 2026-05-08 22:53 | 0.74815 | 32.99609 | 19783 ft | 405 kts | 245° |
| 2026-05-08 22:53 | 0.73347 | 32.97221 | 19317 ft | 401 kts | 234° |
| 2026-05-08 22:54 | 0.71727 | 32.94956 | 18851 ft | 400 kts | 234° |
| 2026-05-08 22:54 | 0.70103 | 32.92704 | 18372 ft | 400 kts | 234° |
| 2026-05-08 22:54 | 0.68487 | 32.90438 | 17859 ft | 399 kts | 234° |
| 2026-05-08 22:54 | 0.66897 | 32.88177 | 17343 ft | 397 kts | 234° |
| 2026-05-08 22:55 | 0.65322 | 32.85912 | 16878 ft | 395 kts | 235° |
| 2026-05-08 22:55 | 0.63762 | 32.83655 | 16363 ft | 394 kts | 235° |
| 2026-05-08 22:55 | 0.62209 | 32.81404 | 15879 ft | 393 kts | 235° |
| 2026-05-08 22:55 | 0.60663 | 32.79160 | 15422 ft | 391 kts | 234° |
| 2026-05-08 22:56 | 0.59123 | 32.76925 | 14955 ft | 389 kts | 234° |
| 2026-05-08 22:56 | 0.57592 | 32.74704 | 14517 ft | 388 kts | 234° |
| 2026-05-08 22:56 | 0.56069 | 32.72494 | 14055 ft | 386 kts | 234° |
| 2026-05-08 22:56 | 0.54544 | 32.70283 | 13569 ft | 385 kts | 234° |
| 2026-05-08 22:57 | 0.53025 | 32.68081 | 13083 ft | 383 kts | 234° |
| 2026-05-08 22:57 | 0.51518 | 32.65897 | 12613 ft | 381 kts | 234° |
| 2026-05-08 22:57 | 0.50047 | 32.63763 | 12144 ft | 363 kts | 234° |
| 2026-05-08 22:57 | 0.48657 | 32.61745 | 11712 ft | 340 kts | 234° |
| 2026-05-08 22:58 | 0.47321 | 32.59808 | 11338 ft | 338 kts | 234° |
| 2026-05-08 22:58 | 0.45988 | 32.57875 | 10934 ft | 338 kts | 234° |
| 2026-05-08 22:58 | 0.44656 | 32.55945 | 10591 ft | 338 kts | 234° |
| 2026-05-08 22:58 | 0.43360 | 32.54064 | 10408 ft | 316 kts | 234° |
| 2026-05-08 22:59 | 0.42159 | 32.52321 | 10257 ft | 291 kts | 234° |
| 2026-05-08 22:59 | 0.41053 | 32.50715 | 10144 ft | 274 kts | 233° |
| 2026-05-08 22:59 | 0.39998 | 32.49186 | 10038 ft | 266 kts | 233° |
| 2026-05-08 22:59 | 0.38965 | 32.47689 | 9885 ft | 249 kts | 233° |
| 2026-05-08 23:00 | 0.37996 | 32.46283 | 9696 ft | 243 kts | 233° |
| 2026-05-08 23:00 | 0.37054 | 32.44918 | 9420 ft | 240 kts | 233° |
| 2026-05-08 23:00 | 0.36099 | 32.43535 | 9133 ft | 238 kts | 233° |
| 2026-05-08 23:00 | 0.35178 | 32.42200 | 8864 ft | 235 kts | 233° |
| 2026-05-08 23:01 | 0.34255 | 32.40894 | 8614 ft | 224 kts | 227° |
| 2026-05-08 23:01 | 0.33014 | 32.40069 | 8321 ft | 211 kts | 194° |
| 2026-05-08 23:01 | 0.31571 | 32.39930 | 8126 ft | 211 kts | 175° |
| 2026-05-08 23:01 | 0.30109 | 32.40112 | 7880 ft | 211 kts | 169° |
| 2026-05-08 23:02 | 0.28678 | 32.40361 | 7666 ft | 204 kts | 170° |
| 2026-05-08 23:02 | 0.27325 | 32.40573 | 7563 ft | 193 kts | 171° |
| 2026-05-08 23:02 | 0.26004 | 32.40766 | 7484 ft | 191 kts | 171° |
| 2026-05-08 23:02 | 0.24690 | 32.40952 | 7351 ft | 194 kts | 171° |
| 2026-05-08 23:03 | 0.23359 | 32.41139 | 7119 ft | 192 kts | 171° |
| 2026-05-08 23:03 | 0.22045 | 32.41323 | 6923 ft | 191 kts | 171° |
| 2026-05-08 23:03 | 0.20753 | 32.41503 | 6687 ft | 180 kts | 171° |
| 2026-05-08 23:03 | 0.19564 | 32.41668 | 6456 ft | 166 kts | 171° |
| 2026-05-08 23:04 | 0.18444 | 32.41825 | 6263 ft | 161 kts | 171° |
| 2026-05-08 23:04 | 0.17335 | 32.41980 | 6072 ft | 165 kts | 172° |
| 2026-05-08 23:04 | 0.16173 | 32.42141 | 5877 ft | 167 kts | 171° |
| 2026-05-08 23:04 | 0.15027 | 32.42303 | 5657 ft | 165 kts | 172° |
| 2026-05-08 23:05 | 0.13893 | 32.42461 | 5459 ft | 164 kts | 172° |
| 2026-05-08 23:05 | 0.12756 | 32.42619 | 5256 ft | 165 kts | 172° |
| 2026-05-08 23:05 | 0.11616 | 32.42778 | 5056 ft | 166 kts | 172° |
| 2026-05-08 23:05 | 0.10468 | 32.42938 | 4850 ft | 167 kts | 171° |
| 2026-05-08 23:06 | 0.09323 | 32.43109 | 4644 ft | 165 kts | 171° |
| 2026-05-08 23:06 | 0.08183 | 32.43277 | 4393 ft | 167 kts | 172° |
| 2026-05-08 23:06 | 0.07037 | 32.43419 | 4192 ft | 166 kts | 173° |
| 2026-05-08 23:06 | 0.05881 | 32.43580 | 3906 ft | 167 kts | 171° |
| 2026-05-08 23:07 | 0.04748 | 32.43737 | 3789 ft | 156 kts | 170° |
| 2026-05-08 23:07 | 0.03914 | 32.43850 | 3783 ft | 61 kts | 172° |
| 2026-05-08 23:07 | 0.03513 | 32.43906 | 3784 ft | 55 kts | 172° |
| 2026-05-08 23:07 | 0.03186 | 32.43950 | 3778 ft | 36 kts | 172° |
| 2026-05-08 23:08 | 0.02982 | 32.43993 | 3778 ft | 29 kts | 152° |
| 2026-05-08 23:08 | 0.02837 | 32.44101 | 3777 ft | 15 kts | 139° |
| 2026-05-08 23:08 | 0.02829 | 32.44108 | 3780 ft | 0 kts | 141° |
| 2026-05-08 23:10 | 0.02825 | 32.44135 | 3778 ft | 8 kts | 81° |
| 2026-05-08 23:10 | 0.02871 | 32.44163 | 3774 ft | 8 kts | 6° |
| 2026-05-08 23:10 | 0.02929 | 32.44160 | 3776 ft | 8 kts | 353° |
| 2026-05-08 23:10 | 0.02986 | 32.44152 | 3777 ft | 8 kts | 352° |
| 2026-05-08 23:11 | 0.03044 | 32.44144 | 3773 ft | 8 kts | 352° |
| 2026-05-08 23:11 | 0.03109 | 32.44135 | 3778 ft | 12 kts | 352° |
| 2026-05-08 23:11 | 0.03212 | 32.44120 | 3785 ft | 18 kts | 352° |
| 2026-05-08 23:11 | 0.03365 | 32.44100 | 3776 ft | 26 kts | 352° |
| 2026-05-08 23:12 | 0.03542 | 32.44075 | 3781 ft | 21 kts | 352° |
| 2026-05-08 23:12 | 0.03667 | 32.44058 | 3783 ft | 18 kts | 352° |
| 2026-05-08 23:12 | 0.03792 | 32.44041 | 3782 ft | 18 kts | 352° |
| 2026-05-08 23:12 | 0.03916 | 32.44023 | 3784 ft | 18 kts | 352° |
| 2026-05-08 23:13 | 0.04040 | 32.44006 | 3786 ft | 18 kts | 352° |
| 2026-05-08 23:13 | 0.04149 | 32.43992 | 3786 ft | 11 kts | 353° |
| 2026-05-08 23:13 | 0.04203 | 32.44022 | 3784 ft | 9 kts | 63° |
| 2026-05-08 23:13 | 0.04215 | 32.44085 | 3788 ft | 9 kts | 81° |
| 2026-05-08 23:14 | 0.04254 | 32.44130 | 3792 ft | 9 kts | 15° |
| 2026-05-08 23:14 | 0.04319 | 32.44130 | 3788 ft | 8 kts | 356° |
| 2026-05-08 23:14 | 0.04373 | 32.44123 | 3792 ft | 8 kts | 352° |
| 2026-05-08 23:14 | 0.04433 | 32.44115 | 3791 ft | 9 kts | 352° |
| 2026-05-08 23:15 | 0.04481 | 32.44129 | 3790 ft | 7 kts | 34° |
| 2026-05-08 23:15 | 0.04492 | 32.44153 | 3792 ft | 0 kts | 84° |
| 2026-05-08 23:15 | 0.04491 | 32.44156 | 3792 ft | 0 kts | 98° |
| 2026-05-08 23:15 | 0.04486 | 32.44161 | 3793 ft | 2 kts | 131° |
| 2026-05-08 23:16 | 0.04470 | 32.44177 | 3790 ft | 3 kts | 124° |
| 2026-05-08 23:16 | 0.04465 | 32.44194 | 3789 ft | 0 kts | 101° |